Simpsonville, South Carolina
Current Conditions -  °F | °C
As of 1:15 AM on Monday 26 Jan 2015 (Local Time) from KGYH Reporting Station
Overcast Overcast  
Wind Chill: 37°   Ceiling: 6000
Heat Index: 41°   Visibility: 10mi
Dew Point: 30°   Wind: 6mph
Humidity: 65%   Direction: 240°WSW
Pressure: 29.69"   Gusts: NA
Location:  34.74°N, 82.25°W
Report Text: KGYH 260615Z AUTO 24005KT 10SM BKN060 OVC075 05/M01 A2969 RMK AO2
Loading
Personal Weather Stations






























Interactive Weather Map New forecast layout! Learn more

10-Day Weather Forecast

Advertisements
Track Severe Weather on mobile